Forreston, Texas
Current Conditions -  °F | °C
As of 8:15 AM on Wednesday 28 Jan 2015 (Local Time) from KJWY Reporting Station
Clear Clear  
Wind Chill: 46°   Ceiling: Unl
Heat Index: 49°   Visibility: 10mi
Dew Point: 43°   Wind: 6mph
Humidity: 81%   Direction: 150°SSE
Pressure: 30.14"   Gusts: NA
Location:  32.26°N, 96.87°W
Report Text: KJWY 281415Z AUTO 15005KT 10SM CLR 09/06 A3014 RMK AO2 T00930062
Loading
Personal Weather Stations






























Interactive Weather Map New forecast layout! Learn more

10-Day Weather Forecast

Advertisements
Track Severe Weather on mobile